createdAt,value
2019-03-17T00:00:24.235Z,81.84
2019-03-17T00:02:52.835Z,81.84
2019-03-17T00:05:21.536Z,81.91
2019-03-17T00:07:50.141Z,81.89
2019-03-17T00:10:18.748Z,81.82
2019-03-17T00:12:47.454Z,81.96
2019-03-17T00:15:16.099Z,82.07
2019-03-17T00:17:44.683Z,82.21
2019-03-17T00:20:13.287Z,82.12
2019-03-17T00:22:41.818Z,82.26
2019-03-17T00:25:10.480Z,82.01
2019-03-17T00:27:39.056Z,82.63
2019-03-17T00:30:10.199Z,82.48
2019-03-17T00:32:38.872Z,82.15
2019-03-17T00:35:07.478Z,82.43
2019-03-17T00:37:36.078Z,82.74
2019-03-17T00:40:07.187Z,82.66
2019-03-17T00:42:39.427Z,82.64
2019-03-17T00:45:11.511Z,82.31
2019-03-17T00:47:40.251Z,82.81
2019-03-17T00:50:11.114Z,82.39
2019-03-17T00:52:39.710Z,82.40
2019-03-17T00:55:08.318Z,82.31
2019-03-17T00:57:36.846Z,82.87
2019-03-17T01:00:16.551Z,82.90
2019-03-17T01:02:45.161Z,82.84
2019-03-17T01:05:13.722Z,82.98
2019-03-17T01:07:42.181Z,83.10
2019-03-17T01:10:10.962Z,83.04
2019-03-17T01:12:39.597Z,82.65
2019-03-17T01:15:09.164Z,82.54
2019-03-17T01:17:37.783Z,83.23
2019-03-17T01:20:08.881Z,83.32
2019-03-17T01:22:37.431Z,82.83
2019-03-17T01:25:10.332Z,82.72
2019-03-17T01:27:38.862Z,82.94
2019-03-17T01:30:12.109Z,83.01
2019-03-17T01:32:40.682Z,82.99
2019-03-17T01:35:10.749Z,82.76
2019-03-17T01:37:39.288Z,82.92
2019-03-17T01:40:10.011Z,82.67
2019-03-17T01:42:38.546Z,82.67
2019-03-17T01:45:08.983Z,82.58
2019-03-17T01:47:37.575Z,82.51
2019-03-17T01:50:08.378Z,82.52
2019-03-17T01:52:36.994Z,82.63
2019-03-17T01:55:06.730Z,82.66
2019-03-17T01:57:35.287Z,82.31
2019-03-17T02:00:03.885Z,82.57
2019-03-17T02:02:32.478Z,82.51
2019-03-17T02:05:01.073Z,82.49
2019-03-17T02:07:29.651Z,82.55
2019-03-17T02:09:58.183Z,82.80
2019-03-17T02:12:26.761Z,82.60
2019-03-17T02:14:55.360Z,82.56
2019-03-17T02:17:23.962Z,82.76
2019-03-17T02:19:52.572Z,82.72
2019-03-17T02:22:22.773Z,82.85
2019-03-17T02:24:51.311Z,82.84
2019-03-17T02:27:19.842Z,82.71
2019-03-17T02:29:48.497Z,83.14
2019-03-17T02:32:16.950Z,83.15
2019-03-17T02:34:46.907Z,82.90
2019-03-17T02:37:15.432Z,82.84
2019-03-17T02:39:43.899Z,83.09
2019-03-17T02:42:12.467Z,82.92
2019-03-17T02:44:41.000Z,83.07
2019-03-17T02:47:09.471Z,83.02
2019-03-17T02:49:38.116Z,83.00
2019-03-17T02:52:06.778Z,83.01
2019-03-17T02:54:35.287Z,83.06
2019-03-17T02:57:03.821Z,83.14
2019-03-17T02:59:32.416Z,83.12
2019-03-17T03:02:02.419Z,83.45
2019-03-17T03:04:31.047Z,83.30
2019-03-17T03:06:59.855Z,83.35
2019-03-17T03:09:28.763Z,83.35
2019-03-17T03:11:57.295Z,83.26
2019-03-17T03:14:25.758Z,83.27
2019-03-17T03:16:54.294Z,83.51
2019-03-17T03:19:22.844Z,83.75
2019-03-17T03:21:51.318Z,83.58
2019-03-17T03:24:19.781Z,83.79
2019-03-17T03:26:48.338Z,83.74
2019-03-17T03:29:16.907Z,83.89
2019-03-17T03:31:45.734Z,83.88
2019-03-17T03:34:14.288Z,83.81
2019-03-17T03:36:42.823Z,83.50
2019-03-17T03:39:11.349Z,83.45
2019-03-17T03:41:40.259Z,83.59
2019-03-17T03:44:08.809Z,83.65
2019-03-17T03:46:37.276Z,83.62
2019-03-17T03:49:05.877Z,83.78
2019-03-17T03:51:34.367Z,83.53
2019-03-17T03:54:02.993Z,83.53
2019-03-17T03:56:31.534Z,83.59
2019-03-17T03:59:00.149Z,83.38
2019-03-17T04:01:28.713Z,83.42
2019-03-17T04:03:57.278Z,83.31
2019-03-17T04:06:27.167Z,83.51
2019-03-17T04:08:56.088Z,83.66
2019-03-17T04:11:24.718Z,83.59
2019-03-17T04:13:53.280Z,83.71
2019-03-17T04:16:21.735Z,83.64
2019-03-17T04:18:50.296Z,83.59
2019-03-17T04:21:18.831Z,83.91
2019-03-17T04:23:47.417Z,84.01
2019-03-17T04:26:15.949Z,83.97
2019-03-17T04:28:44.516Z,84.00
2019-03-17T04:31:14.689Z,84.04
2019-03-17T04:33:43.604Z,84.22
2019-03-17T04:36:12.129Z,84.43
2019-03-17T04:38:43.666Z,84.66
2019-03-17T04:41:11.188Z,85.03
2019-03-17T04:43:39.645Z,85.28
2019-03-17T04:46:08.208Z,85.45
2019-03-17T04:48:38.215Z,85.10
2019-03-17T04:51:06.777Z,84.91
2019-03-17T04:53:35.331Z,85.18
2019-03-17T04:56:03.929Z,85.32
2019-03-17T04:58:32.440Z,85.28
2019-03-17T05:01:01.036Z,85.15
2019-03-17T05:03:29.627Z,85.00
2019-03-17T05:05:58.231Z,84.81
2019-03-17T05:08:26.747Z,84.74
2019-03-17T05:10:55.223Z,84.73
2019-03-17T05:13:23.694Z,84.53
2019-03-17T05:15:52.257Z,84.61
2019-03-17T05:18:20.753Z,84.63
2019-03-17T05:20:49.388Z,84.76
2019-03-17T05:23:19.138Z,84.93
2019-03-17T05:25:47.635Z,84.93
2019-03-17T05:28:16.170Z,85.17
2019-03-17T05:30:44.821Z,85.07
2019-03-17T05:33:13.285Z,85.02
2019-03-17T05:35:41.916Z,84.96
2019-03-17T05:38:10.444Z,85.15
2019-03-17T05:40:39.059Z,85.32
2019-03-17T05:43:07.551Z,85.55
2019-03-17T05:45:36.030Z,85.58
2019-03-17T05:48:04.660Z,85.34
2019-03-17T05:50:33.197Z,85.30
2019-03-17T05:53:01.731Z,85.08
2019-03-17T05:55:30.359Z,85.01
2019-03-17T05:57:58.862Z,85.13
2019-03-17T06:00:27.400Z,84.99
2019-03-17T06:02:55.929Z,85.16
2019-03-17T06:05:24.495Z,85.30
2019-03-17T06:07:54.595Z,85.31
2019-03-17T06:10:23.064Z,84.99
2019-03-17T06:12:51.538Z,84.83
2019-03-17T06:15:20.142Z,84.98
2019-03-17T06:17:48.710Z,84.87
2019-03-17T06:20:17.319Z,84.75
2019-03-17T06:22:45.786Z,84.41
2019-03-17T06:25:14.323Z,84.45
2019-03-17T06:27:42.878Z,84.25
2019-03-17T06:30:13.680Z,83.98
2019-03-17T06:32:42.281Z,83.46
2019-03-17T06:35:10.886Z,82.84
2019-03-17T06:37:39.418Z,82.32
2019-03-17T06:40:12.676Z,81.75
2019-03-17T06:42:41.309Z,81.40
2019-03-17T06:45:11.308Z,80.77
2019-03-17T06:47:39.778Z,80.49
2019-03-17T06:50:11.403Z,79.84
2019-03-17T06:52:40.024Z,79.54
2019-03-17T06:55:19.034Z,78.97
2019-03-17T06:57:47.667Z,78.28
2019-03-17T07:00:16.274Z,77.98
2019-03-17T07:02:44.943Z,77.32
2019-03-17T07:05:13.543Z,77.00
2019-03-17T07:07:44.244Z,76.30
2019-03-17T07:10:12.415Z,75.35
2019-03-17T07:12:40.954Z,75.33
2019-03-17T07:15:11.484Z,75.18
2019-03-17T07:17:40.175Z,75.04
2019-03-17T07:20:10.990Z,74.73
2019-03-17T07:22:39.524Z,74.50
2019-03-17T07:25:09.319Z,74.26
2019-03-17T07:27:37.844Z,73.90
2019-03-17T07:30:14.349Z,73.74
2019-03-17T07:32:42.973Z,72.83
2019-03-17T07:35:11.555Z,72.31
2019-03-17T07:37:40.241Z,72.52
2019-03-17T07:40:11.314Z,71.97
2019-03-17T07:42:39.910Z,71.57
2019-03-17T07:45:12.174Z,71.33
2019-03-17T07:47:40.650Z,71.21
2019-03-17T07:50:11.843Z,70.76
2019-03-17T07:52:40.469Z,70.12
2019-03-17T07:55:10.081Z,69.85
2019-03-17T07:57:38.720Z,68.29
2019-03-17T08:00:12.339Z,67.29
2019-03-17T08:02:41.935Z,66.05
2019-03-17T08:05:10.833Z,65.27
2019-03-17T08:07:39.477Z,64.45
2019-03-17T08:10:13.325Z,63.75
2019-03-17T08:12:41.893Z,62.51
2019-03-17T08:15:12.393Z,63.43
2019-03-17T08:17:40.939Z,63.00
2019-03-17T08:20:11.343Z,63.45
2019-03-17T08:22:39.980Z,63.17
2019-03-17T08:25:09.880Z,62.75
2019-03-17T08:27:38.487Z,63.15
2019-03-17T08:30:17.492Z,62.45
2019-03-17T08:32:46.116Z,63.19
2019-03-17T08:35:14.677Z,62.65
2019-03-17T08:37:43.336Z,62.34
2019-03-17T08:40:16.492Z,62.13
2019-03-17T08:42:45.099Z,61.47
2019-03-17T08:45:14.855Z,60.80
2019-03-17T08:47:56.791Z,61.03
2019-03-17T08:50:14.911Z,60.51
2019-03-17T08:52:43.524Z,60.05
2019-03-17T08:55:12.231Z,58.87
2019-03-17T08:57:40.771Z,58.89
2019-03-17T09:00:16.816Z,58.56
2019-03-17T09:02:45.352Z,58.68
2019-03-17T09:05:13.956Z,58.42
2019-03-17T09:07:42.562Z,58.55
2019-03-17T09:10:15.718Z,58.70
2019-03-17T09:12:44.345Z,58.78
2019-03-17T09:15:13.458Z,59.05
2019-03-17T09:17:42.052Z,59.09
2019-03-17T09:20:12.964Z,59.98
2019-03-17T09:22:41.576Z,59.11
2019-03-17T09:25:11.679Z,58.95
2019-03-17T09:27:40.286Z,58.80
2019-03-17T09:30:14.102Z,58.29
2019-03-17T09:32:57.322Z,58.53
2019-03-17T09:35:13.646Z,58.39
2019-03-17T09:37:42.268Z,57.00
2019-03-17T09:40:18.091Z,56.93
2019-03-17T09:42:46.699Z,56.63
2019-03-17T09:45:16.011Z,56.43
2019-03-17T09:47:44.661Z,56.20
2019-03-17T09:50:20.697Z,56.18
2019-03-17T09:52:49.158Z,56.23
2019-03-17T09:55:17.790Z,56.78
2019-03-17T09:57:46.604Z,56.75
2019-03-17T10:00:19.370Z,56.01
2019-03-17T10:02:47.837Z,56.58
2019-03-17T10:05:16.587Z,57.16
2019-03-17T10:07:45.132Z,57.27
2019-03-17T10:10:18.502Z,56.78
2019-03-17T10:12:47.032Z,56.99
2019-03-17T10:15:16.883Z,56.26
2019-03-17T10:17:45.420Z,56.66
2019-03-17T10:20:16.067Z,56.45
2019-03-17T10:22:44.613Z,57.00
2019-03-17T10:25:13.623Z,56.96
2019-03-17T10:27:42.249Z,56.61
2019-03-17T10:30:16.850Z,56.65
2019-03-17T10:32:45.397Z,56.76
2019-03-17T10:35:14.004Z,56.97
2019-03-17T10:37:42.538Z,56.97
2019-03-17T10:40:17.027Z,57.15
2019-03-17T10:42:45.911Z,56.81
2019-03-17T10:45:15.170Z,56.05
2019-03-17T10:47:43.763Z,56.76
2019-03-17T10:50:15.045Z,56.67
2019-03-17T10:52:46.808Z,56.80
2019-03-17T10:55:15.438Z,55.42
2019-03-17T10:57:44.091Z,55.71
2019-03-17T11:00:22.774Z,55.88
2019-03-17T11:02:50.722Z,56.19
2019-03-17T11:05:19.399Z,56.38
2019-03-17T11:07:48.027Z,56.41
2019-03-17T11:10:16.723Z,56.32
2019-03-17T11:12:45.410Z,55.66
2019-03-17T11:15:19.097Z,55.79
2019-03-17T11:17:47.785Z,55.77
2019-03-17T11:20:19.236Z,55.18
2019-03-17T11:22:48.031Z,55.54
2019-03-17T11:25:18.208Z,55.20
2019-03-17T11:27:46.812Z,54.92
2019-03-17T11:30:23.136Z,54.65
2019-03-17T11:32:51.660Z,54.28
2019-03-17T11:35:20.301Z,55.08
2019-03-17T11:37:48.953Z,54.50
2019-03-17T11:40:19.080Z,54.67
2019-03-17T11:42:49.723Z,54.75
2019-03-17T11:45:18.611Z,54.06
2019-03-17T11:47:47.334Z,54.46
2019-03-17T11:50:20.377Z,54.64
2019-03-17T11:52:49.599Z,54.57
2019-03-17T11:55:18.192Z,54.09
2019-03-17T11:57:46.820Z,54.50
2019-03-17T12:00:23.553Z,54.59
2019-03-17T12:02:52.200Z,54.08
2019-03-17T12:05:20.823Z,53.92
2019-03-17T12:07:49.433Z,53.75
2019-03-17T12:10:23.449Z,54.39
2019-03-17T12:12:52.008Z,55.03
2019-03-17T12:15:25.610Z,55.09
2019-03-17T12:17:54.222Z,55.26
2019-03-17T12:20:22.843Z,55.70
2019-03-17T12:22:54.035Z,55.81
2019-03-17T12:25:22.647Z,56.06
2019-03-17T12:27:51.293Z,55.59
2019-03-17T12:30:24.655Z,55.90
2019-03-17T12:32:54.304Z,56.18
2019-03-17T12:35:22.942Z,56.26
2019-03-17T12:37:51.560Z,55.66
2019-03-17T12:40:20.164Z,56.21
2019-03-17T12:42:48.835Z,55.67
2019-03-17T12:45:17.641Z,55.65
2019-03-17T12:47:46.241Z,54.94
2019-03-17T12:50:16.651Z,54.27
2019-03-17T12:52:45.259Z,54.40
2019-03-17T12:55:13.879Z,54.20
2019-03-17T12:57:42.420Z,53.69
2019-03-17T13:00:13.524Z,52.36
2019-03-17T13:02:41.994Z,52.85
2019-03-17T13:05:11.500Z,52.04
2019-03-17T13:07:40.102Z,51.99
2019-03-17T13:10:15.854Z,52.31
2019-03-17T13:12:41.556Z,53.13
2019-03-17T13:15:11.766Z,53.55
2019-03-17T13:17:40.376Z,53.65
2019-03-17T13:20:11.763Z,53.60
2019-03-17T13:22:40.380Z,53.81
2019-03-17T13:25:10.483Z,53.60
2019-03-17T13:27:39.815Z,53.71
2019-03-17T13:30:16.194Z,54.08
2019-03-17T13:32:45.016Z,54.09
2019-03-17T13:35:13.637Z,54.05
2019-03-17T13:37:44.189Z,53.76
2019-03-17T13:40:28.090Z,53.81
2019-03-17T13:42:47.888Z,53.64
2019-03-17T13:45:17.937Z,53.88
2019-03-17T13:47:46.570Z,53.74
2019-03-17T13:50:19.767Z,53.74
2019-03-17T13:52:48.332Z,53.89
2019-03-17T13:55:17.013Z,53.82
2019-03-17T13:58:00.566Z,53.86
2019-03-17T14:00:29.094Z,53.64
2019-03-17T14:02:57.630Z,53.87
2019-03-17T14:05:26.237Z,54.29
2019-03-17T14:07:54.896Z,53.99
2019-03-17T14:10:23.507Z,53.56
2019-03-17T14:12:52.050Z,53.59
2019-03-17T14:15:20.661Z,52.78
2019-03-17T14:17:50.188Z,53.26
2019-03-17T14:20:21.078Z,52.66
2019-03-17T14:22:50.067Z,53.07
2019-03-17T14:25:23.730Z,52.84
2019-03-17T14:27:52.286Z,52.78
2019-03-17T14:30:23.787Z,52.96
2019-03-17T14:32:52.415Z,52.55
2019-03-17T14:35:21.755Z,52.65
2019-03-17T14:37:50.779Z,52.95
2019-03-17T14:40:19.478Z,52.97
2019-03-17T14:42:51.797Z,52.55
2019-03-17T14:45:20.470Z,52.75
2019-03-17T14:47:50.038Z,52.79
2019-03-17T14:50:25.110Z,52.73
2019-03-17T14:52:53.718Z,52.58
2019-03-17T14:55:22.337Z,52.54
2019-03-17T14:57:50.945Z,52.72
2019-03-17T15:00:23.290Z,52.45
2019-03-17T15:02:51.905Z,52.67
2019-03-17T15:05:20.535Z,52.66
2019-03-17T15:07:49.081Z,52.65
2019-03-17T15:10:27.147Z,52.56
2019-03-17T15:12:55.710Z,52.40
2019-03-17T15:15:24.311Z,51.71
2019-03-17T15:17:53.148Z,51.72
2019-03-17T15:20:26.023Z,52.09
2019-03-17T15:22:54.640Z,52.33
2019-03-17T15:25:23.942Z,51.69
2019-03-17T15:27:52.577Z,51.42
2019-03-17T15:30:36.882Z,51.49
2019-03-17T15:33:02.802Z,51.42
2019-03-17T15:35:31.393Z,51.24
2019-03-17T15:37:59.980Z,51.66
2019-03-17T15:40:28.569Z,51.96
2019-03-17T15:42:57.080Z,52.23
2019-03-17T15:45:28.511Z,52.18
2019-03-17T15:47:57.039Z,52.33
2019-03-17T15:50:29.863Z,52.27
2019-03-17T15:52:58.455Z,52.46
2019-03-17T15:55:27.054Z,52.53
2019-03-17T15:57:55.665Z,52.79
2019-03-17T16:00:26.649Z,52.67
2019-03-17T16:02:55.694Z,52.60
2019-03-17T16:05:24.260Z,52.81
2019-03-17T16:07:53.016Z,52.57
2019-03-17T16:10:30.080Z,52.83
2019-03-17T16:12:58.683Z,52.76
2019-03-17T16:15:27.218Z,52.91
2019-03-17T16:17:55.865Z,53.13
2019-03-17T16:20:28.522Z,53.35
2019-03-17T16:22:57.148Z,53.40
2019-03-17T16:25:32.878Z,53.56
2019-03-17T16:28:01.604Z,53.79
2019-03-17T16:30:32.251Z,54.18
2019-03-17T16:33:00.909Z,54.36
2019-03-17T16:35:31.596Z,54.30
2019-03-17T16:37:59.871Z,54.20
2019-03-17T16:40:36.091Z,54.43
2019-03-17T16:43:06.060Z,54.75
2019-03-17T16:45:34.867Z,54.98
2019-03-17T16:48:03.509Z,55.38
2019-03-17T16:50:32.092Z,55.67
2019-03-17T16:53:00.577Z,56.01
2019-03-17T16:55:29.116Z,56.23
2019-03-17T16:57:57.764Z,56.60
2019-03-17T17:00:27.117Z,56.92
2019-03-17T17:02:58.350Z,57.18
2019-03-17T17:05:27.428Z,57.39
2019-03-17T17:07:55.982Z,57.64
2019-03-17T17:10:26.731Z,57.95
2019-03-17T17:12:55.677Z,58.58
2019-03-17T17:15:29.979Z,58.92
2019-03-17T17:17:58.608Z,59.32
2019-03-17T17:20:35.462Z,59.43
2019-03-17T17:23:04.253Z,59.62
2019-03-17T17:25:32.870Z,60.08
2019-03-17T17:28:01.484Z,60.48
2019-03-17T17:30:30.181Z,60.76
2019-03-17T17:32:58.796Z,61.06
2019-03-17T17:35:27.286Z,61.53
2019-03-17T17:37:55.903Z,61.86
2019-03-17T17:40:25.974Z,61.95
2019-03-17T17:42:54.592Z,62.23
2019-03-17T17:45:25.193Z,62.30
2019-03-17T17:47:53.739Z,62.52
2019-03-17T17:50:27.158Z,62.57
2019-03-17T17:52:55.673Z,62.88
2019-03-17T17:55:24.227Z,63.19
2019-03-17T17:57:53.335Z,63.35
2019-03-17T18:00:26.994Z,63.79
2019-03-17T18:02:55.541Z,64.02
2019-03-17T18:05:24.170Z,64.31
2019-03-17T18:07:52.708Z,64.86
2019-03-17T18:10:21.314Z,65.19
2019-03-17T18:12:49.916Z,64.98
2019-03-17T18:15:26.573Z,65.19
2019-03-17T18:17:56.179Z,65.60
2019-03-17T18:20:24.801Z,65.84
2019-03-17T18:22:53.516Z,66.14
2019-03-17T18:25:23.156Z,66.23
2019-03-17T18:27:51.791Z,66.52
2019-03-17T18:30:21.738Z,66.67
2019-03-17T18:32:50.356Z,66.71
2019-03-17T18:35:19.023Z,66.94
2019-03-17T18:37:47.623Z,67.24
2019-03-17T18:40:22.620Z,67.74
2019-03-17T18:42:51.232Z,67.98
2019-03-17T18:45:22.208Z,68.14
2019-03-17T18:47:50.839Z,68.43
2019-03-17T18:50:21.050Z,68.57
2019-03-17T18:52:49.700Z,68.81
2019-03-17T18:55:18.712Z,68.29
2019-03-17T18:57:47.322Z,68.47
2019-03-17T19:00:21.671Z,68.58
2019-03-17T19:02:50.344Z,68.77
2019-03-17T19:05:20.308Z,69.22
2019-03-17T19:07:49.084Z,69.31
2019-03-17T19:10:18.797Z,69.45
2019-03-17T19:12:47.406Z,69.72
2019-03-17T19:15:23.208Z,69.73
2019-03-17T19:17:51.808Z,69.79
2019-03-17T19:20:22.555Z,69.96
2019-03-17T19:22:51.153Z,70.23
2019-03-17T19:25:26.962Z,70.35
2019-03-17T19:27:55.569Z,70.34
2019-03-17T19:30:25.806Z,70.67
2019-03-17T19:32:54.261Z,70.69
2019-03-17T19:35:22.791Z,70.65
2019-03-17T19:37:51.491Z,70.67
2019-03-17T19:40:22.174Z,70.70
2019-03-17T19:42:58.782Z,70.72
2019-03-17T19:45:21.038Z,70.96
2019-03-17T19:47:49.648Z,71.07
2019-03-17T19:50:19.925Z,71.27
2019-03-17T19:52:48.465Z,71.40
2019-03-17T19:55:17.084Z,71.33
2019-03-17T19:57:45.697Z,71.51
2019-03-17T20:00:21.704Z,71.60
2019-03-17T20:02:50.307Z,71.76
2019-03-17T20:05:18.958Z,71.98
2019-03-17T20:07:47.560Z,72.02
2019-03-17T20:10:19.076Z,72.19
2019-03-17T20:12:47.559Z,72.41
2019-03-17T20:15:16.374Z,72.75
2019-03-17T20:17:45.135Z,72.73
2019-03-17T20:20:14.861Z,72.81
2019-03-17T20:22:43.524Z,72.94
2019-03-17T20:25:12.454Z,73.03
2019-03-17T20:27:41.082Z,72.74
2019-03-17T20:30:12.738Z,73.30
2019-03-17T20:32:41.348Z,73.11
2019-03-17T20:35:11.898Z,73.18
2019-03-17T20:37:40.474Z,72.98
2019-03-17T20:40:13.828Z,73.15
2019-03-17T20:42:42.436Z,73.60
2019-03-17T20:45:13.054Z,73.61
2019-03-17T20:47:41.659Z,73.65
2019-03-17T20:50:18.391Z,73.71
2019-03-17T20:52:46.935Z,73.72
2019-03-17T20:55:16.338Z,73.29
2019-03-17T20:57:44.945Z,73.22
2019-03-17T21:00:20.246Z,73.38
2019-03-17T21:02:48.851Z,73.63
2019-03-17T21:05:17.462Z,73.95
2019-03-17T21:07:48.946Z,73.80
2019-03-17T21:10:17.882Z,73.99
2019-03-17T21:12:46.487Z,73.96
2019-03-17T21:15:21.106Z,73.84
2019-03-17T21:17:49.670Z,73.99
2019-03-17T21:20:23.537Z,74.03
2019-03-17T21:22:52.821Z,74.44
2019-03-17T21:25:21.380Z,74.49
2019-03-17T21:27:49.898Z,74.47
2019-03-17T21:30:24.463Z,75.11
2019-03-17T21:32:53.076Z,74.89
2019-03-17T21:35:21.651Z,74.79
2019-03-17T21:37:50.331Z,75.38
2019-03-17T21:40:18.837Z,75.59
2019-03-17T21:42:47.311Z,75.25
2019-03-17T21:45:16.094Z,75.60
2019-03-17T21:47:44.702Z,75.80
2019-03-17T21:50:18.096Z,75.56
2019-03-17T21:52:46.388Z,75.95
2019-03-17T21:55:14.997Z,76.29
2019-03-17T21:57:43.638Z,76.56
2019-03-17T22:00:14.819Z,76.59
2019-03-17T22:02:43.425Z,76.47
2019-03-17T22:05:13.259Z,76.72
2019-03-17T22:07:49.368Z,76.67
2019-03-17T22:10:22.890Z,76.89
2019-03-17T22:12:52.786Z,76.88
2019-03-17T22:15:21.324Z,77.24
2019-03-17T22:17:50.207Z,77.31
2019-03-17T22:20:18.872Z,77.51
2019-03-17T22:22:47.469Z,77.82
2019-03-17T22:25:16.643Z,77.70
2019-03-17T22:27:45.273Z,77.88
2019-03-17T22:30:21.614Z,78.04
2019-03-17T22:32:50.244Z,78.10
2019-03-17T22:35:20.812Z,78.42
2019-03-17T22:37:49.337Z,78.55
2019-03-17T22:40:19.219Z,78.42
2019-03-17T22:42:47.758Z,78.54
2019-03-17T22:45:17.367Z,78.64
2019-03-17T22:47:46.253Z,78.67
2019-03-17T22:50:18.745Z,78.45
2019-03-17T22:52:47.351Z,78.47
2019-03-17T22:55:16.364Z,78.54
2019-03-17T22:57:44.974Z,78.45
2019-03-17T23:00:19.629Z,78.37
2019-03-17T23:02:48.261Z,78.60
2019-03-17T23:05:16.875Z,78.67
2019-03-17T23:07:45.366Z,78.61
2019-03-17T23:10:14.232Z,78.98
2019-03-17T23:12:42.881Z,78.87
2019-03-17T23:15:12.992Z,78.85
2019-03-17T23:17:41.727Z,78.74
2019-03-17T23:20:14.971Z,78.79
2019-03-17T23:22:45.391Z,78.89
2019-03-17T23:25:14.023Z,79.07
2019-03-17T23:27:42.737Z,79.34
2019-03-17T23:30:21.767Z,79.48
2019-03-17T23:32:50.380Z,79.38
2019-03-17T23:35:18.986Z,79.45
2019-03-17T23:37:47.847Z,79.27
2019-03-17T23:40:17.954Z,79.26
2019-03-17T23:42:46.482Z,79.24
2019-03-17T23:45:15.399Z,79.18
2019-03-17T23:47:43.938Z,79.13
2019-03-17T23:50:15.851Z,79.11
2019-03-17T23:52:44.464Z,79.25
2019-03-17T23:55:14.395Z,79.74
2019-03-17T23:57:43.117Z,79.98
